Time;durP1;ratioP1;P1;durP2;ratioP2;P2;SDS_P1;SDS_P2;PMS_P1;PMS_P2;Temp;Humidity;BMP_temperature;BMP_pressure;BME280_temperature;BME280_humidity;BME280_pressure;Samples;Min_cycle;Max_cycle;Signal;HPM_P1;HPM_P2
2023/09/23 00:00:37;;;;;;;1.70;1.50;;;;;;;14.64;83.07;100123.72;7395244;19;20013;-68
2023/09/23 00:03:08;;;;;;;4.65;1.80;;;;;;;14.64;83.07;100121.06;7396344;19;20025;-68
2023/09/23 00:05:39;;;;;;;3.08;1.35;;;;;;;14.64;82.85;100125.47;7397453;19;20010;-68
2023/09/23 00:08:10;;;;;;;1.73;1.30;;;;;;;14.63;82.89;100132.56;7395457;19;20021;-68
2023/09/23 00:10:39;;;;;;;3.47;1.60;;;;;;;14.62;82.56;100127.31;7396433;19;20014;-68
2023/09/23 00:13:08;;;;;;;1.80;1.17;;;;;;;14.63;82.70;100134.31;7394441;19;20031;-68
2023/09/23 00:15:36;;;;;;;2.80;1.80;;;;;;;14.61;82.72;100139.69;7394566;19;20017;-67
2023/09/23 00:18:05;;;;;;;2.45;1.42;;;;;;;14.62;82.57;100137.88;7394519;19;20011;-68
2023/09/23 00:20:34;;;;;;;2.60;1.20;;;;;;;14.61;82.78;100139.69;7394756;19;20070;-68
2023/09/23 00:23:06;;;;;;;3.83;1.40;;;;;;;14.61;82.25;100131.75;7394830;19;20010;-68
2023/09/23 00:25:38;;;;;;;2.88;1.73;;;;;;;14.61;82.33;100138.84;7396055;19;20027;-68
2023/09/23 00:28:12;;;;;;;2.55;1.67;;;;;;;14.58;82.45;100134.53;7396310;19;20014;-68
2023/09/23 00:30:40;;;;;;;3.20;1.73;;;;;;;14.57;82.29;100135.47;7396701;19;20011;-68
2023/09/23 00:33:10;;;;;;;1.75;1.45;;;;;;;14.57;82.16;100139.88;7394053;19;20070;-68
2023/09/23 00:35:39;;;;;;;1.90;1.38;;;;;;;14.55;82.16;100137.34;7393991;19;20485;-68
2023/09/23 00:38:08;;;;;;;1.20;1.10;;;;;;;14.55;82.06;100132.06;7395563;19;20030;-68
2023/09/23 00:40:39;;;;;;;1.70;1.20;;;;;;;14.55;82.16;100141.78;7394694;19;20010;-68
2023/09/23 00:43:11;;;;;;;2.03;1.52;;;;;;;14.53;82.17;100128.63;7394009;19;20018;-69
2023/09/23 00:45:42;;;;;;;3.65;1.75;;;;;;;14.52;82.48;100123.41;7396190;19;20014;-68
2023/09/23 00:48:11;;;;;;;2.38;1.70;;;;;;;14.49;82.00;100111.22;7395991;19;20035;-68
2023/09/23 00:50:39;;;;;;;2.33;1.50;;;;;;;14.48;82.13;100110.38;7395676;19;20083;-68
2023/09/23 00:53:08;;;;;;;2.53;1.50;;;;;;;14.47;82.29;100105.19;7394581;19;20015;-69
2023/09/23 00:55:43;;;;;;;3.30;2.00;;;;;;;14.45;82.33;100109.66;7395234;19;20011;-69
2023/09/23 00:58:14;;;;;;;1.75;1.02;;;;;;;14.42;82.25;100096.59;7395524;19;20038;-67
2023/09/23 01:00:44;;;;;;;2.75;1.55;;;;;;;14.41;82.19;100102.84;7394035;19;20019;-67
2023/09/23 01:03:13;;;;;;;1.63;1.30;;;;;;;14.38;82.19;100105.59;7394554;19;20025;-68
2023/09/23 01:05:42;;;;;;;1.38;1.10;;;;;;;14.34;82.29;100108.41;7395115;19;20082;-67
2023/09/23 01:08:19;;;;;;;2.55;1.08;;;;;;;14.32;82.48;100110.25;7392958;19;20015;-68
2023/09/23 01:10:50;;;;;;;1.80;1.20;;;;;;;14.30;82.34;100111.25;7395287;19;20007;-68
2023/09/23 01:13:22;;;;;;;2.08;1.10;;;;;;;14.27;82.33;100117.53;7395196;19;20007;-68
2023/09/23 01:15:51;;;;;;;3.58;1.38;;;;;;;14.23;82.66;100118.63;7395401;19;20074;-68
2023/09/23 01:18:20;;;;;;;2.40;1.40;;;;;;;14.21;82.60;100119.63;7393032;19;20150;-68
2023/09/23 01:20:51;;;;;;;2.03;1.30;;;;;;;14.17;82.85;100116.25;7392852;19;20390;-68
2023/09/23 01:23:22;;;;;;;2.42;1.25;;;;;;;14.13;82.91;100117.34;7393879;19;20370;-69
2023/09/23 01:25:50;;;;;;;1.98;1.38;;;;;;;14.10;82.93;100122.75;7394321;19;20481;-70
2023/09/23 01:28:19;;;;;;;4.13;1.80;;;;;;;14.06;82.90;100137.84;7394579;19;20018;-68
2023/09/23 01:30:48;;;;;;;2.22;1.88;;;;;;;14.01;83.10;100132.81;7394535;19;20018;-69
2023/09/23 01:33:16;;;;;;;2.08;1.50;;;;;;;13.98;83.28;100132.94;7393283;19;20010;-69
2023/09/23 01:35:45;;;;;;;5.20;1.58;;;;;;;13.96;83.28;100136.56;7398992;19;20018;-69
2023/09/23 01:38:15;;;;;;;1.65;1.15;;;;;;;13.92;83.46;100129.72;7401894;19;20042;-68
2023/09/23 01:40:47;;;;;;;2.15;1.42;;;;;;;13.89;83.69;100133.34;7399937;19;20010;-68
2023/09/23 01:43:15;;;;;;;2.10;1.38;;;;;;;13.86;83.39;100133.47;7400599;19;20023;-68
2023/09/23 01:45:44;;;;;;;6.20;2.17;;;;;;;13.83;83.94;100134.47;7402142;19;20035;-68
2023/09/23 01:48:13;;;;;;;2.78;1.33;;;;;;;13.81;83.73;100133.72;7401582;19;20015;-68
2023/09/23 01:50:41;;;;;;;4.13;1.77;;;;;;;13.79;83.92;100139.97;7401468;19;20027;-69
2023/09/23 01:53:15;;;;;;;1.60;1.30;;;;;;;13.76;83.97;100143.59;7398610;19;20010;-69
2023/09/23 01:55:46;;;;;;;4.85;1.90;;;;;;;13.73;84.15;100146.34;7401845;19;20018;-69
2023/09/23 01:58:15;;;;;;;6.30;1.80;;;;;;;13.70;84.12;100154.41;7400935;19;20011;-68
2023/09/23 02:00:44;;;;;;;2.90;1.77;;;;;;;13.67;84.32;100165.94;7399230;19;20011;-68
2023/09/23 02:03:13;;;;;;;2.22;1.55;;;;;;;13.64;84.41;100162.59;7400132;19;20018;-68
2023/09/23 02:05:42;;;;;;;1.83;1.20;;;;;;;13.62;84.39;100167.06;7400686;19;20473;-70
2023/09/23 02:08:10;;;;;;;1.58;1.27;;;;;;;13.58;84.39;100165.50;7400880;19;20035;-68
2023/09/23 02:10:39;;;;;;;2.15;1.63;;;;;;;13.55;84.42;100171.75;7400465;19;20542;-69
2023/09/23 02:13:10;;;;;;;2.65;1.60;;;;;;;13.52;84.38;100172.75;7399906;19;20074;-68
2023/09/23 02:15:38;;;;;;;3.80;1.35;;;;;;;13.49;84.55;100178.13;7401056;19;20017;-69
2023/09/23 02:18:07;;;;;;;2.10;1.33;;;;;;;13.46;84.48;100182.69;7400107;19;20415;-68
2023/09/23 02:20:36;;;;;;;2.00;1.42;;;;;;;13.44;84.58;100188.00;7398775;19;20490;-68
2023/09/23 02:23:05;;;;;;;2.78;1.48;;;;;;;13.41;84.52;100192.56;7399518;19;20074;-69
2023/09/23 02:25:34;;;;;;;2.17;1.40;;;;;;;13.38;84.62;100188.28;7397603;19;20074;-69
2023/09/23 02:28:02;;;;;;;1.48;1.20;;;;;;;13.35;84.64;100188.38;7400187;19;20015;-69
2023/09/23 02:30:34;;;;;;;2.22;1.50;;;;;;;13.31;84.58;100192.91;7400264;19;20013;-69
2023/09/23 02:33:02;;;;;;;1.55;1.30;;;;;;;13.28;84.58;100186.91;7397135;19;20015;-69
2023/09/23 02:35:31;;;;;;;2.10;1.67;;;;;;;13.23;84.76;100192.41;7397243;19;20014;-69
2023/09/23 02:37:59;;;;;;;2.97;1.25;;;;;;;13.19;84.90;100186.41;7399333;19;20368;-68
2023/09/23 02:40:28;;;;;;;1.42;1.10;;;;;;;13.16;84.66;100191.78;7398411;19;20089;-68
2023/09/23 02:42:59;;;;;;;1.83;1.33;;;;;;;13.13;85.11;100191.03;7399008;19;20082;-68
2023/09/23 02:45:28;;;;;;;1.63;1.23;;;;;;;13.10;84.98;100191.19;7397292;19;20017;-68
2023/09/23 02:47:59;;;;;;;4.30;1.73;;;;;;;13.08;84.98;100199.16;7397673;19;20498;-69
2023/09/23 02:50:28;;;;;;;1.95;1.30;;;;;;;13.04;85.16;100200.16;7396880;19;20397;-69
2023/09/23 02:52:56;;;;;;;1.33;1.10;;;;;;;13.00;85.08;100202.09;7398853;19;20074;-68
2023/09/23 02:55:25;;;;;;;2.63;1.50;;;;;;;12.97;85.21;100204.00;7397084;19;20074;-68
2023/09/23 02:57:55;;;;;;;1.42;1.00;;;;;;;12.94;85.29;100210.25;7399231;19;20423;-69
2023/09/23 03:00:24;;;;;;;2.60;1.30;;;;;;;12.91;85.28;100214.78;7396487;19;20533;-68
2023/09/23 03:02:55;;;;;;;3.67;1.30;;;;;;;12.88;85.44;100221.84;7398567;19;20015;-68
2023/09/23 03:05:29;;;;;;;2.05;1.20;;;;;;;12.85;85.54;100226.38;7398816;19;20510;-67
2023/09/23 03:07:58;;;;;;;2.95;1.45;;;;;;;12.81;85.75;100227.44;7397140;19;20019;-68
2023/09/23 03:10:32;;;;;;;2.60;1.08;;;;;;;12.77;85.65;100234.59;7398981;19;20017;-68
2023/09/23 03:13:04;;;;;;;2.25;1.30;;;;;;;12.75;85.72;100233.81;7398525;19;20015;-68
2023/09/23 03:15:41;;;;;;;2.15;0.95;;;;;;;12.71;85.93;100229.56;7397078;19;20017;-68
2023/09/23 03:18:10;;;;;;;2.22;1.13;;;;;;;12.66;86.13;100237.66;7399061;19;20030;-68
2023/09/23 03:20:41;;;;;;;1.90;1.20;;;;;;;12.63;86.08;100236.91;7397340;19;20066;-68
2023/09/23 03:23:10;;;;;;;2.13;1.20;;;;;;;12.59;86.21;100248.47;7398158;19;20019;-68
2023/09/23 03:25:48;;;;;;;2.10;1.20;;;;;;;12.59;86.24;100256.38;7398061;19;20514;-68
2023/09/23 03:28:18;;;;;;;2.10;0.95;;;;;;;12.58;86.41;100249.38;7396766;19;20031;-68
2023/09/23 03:30:48;;;;;;;1.67;1.00;;;;;;;12.55;86.36;100247.72;7398286;19;20022;-69
2023/09/23 03:33:18;;;;;;;3.40;1.25;;;;;;;12.52;86.52;100253.97;7397592;19;20018;-67
2023/09/23 03:35:49;;;;;;;1.85;1.10;;;;;;;12.52;86.56;100260.97;7398041;19;20010;-68
2023/09/23 03:38:18;;;;;;;4.75;1.17;;;;;;;12.50;86.53;100266.31;7398374;19;20086;-68
2023/09/23 03:40:52;;;;;;;2.92;1.33;;;;;;;12.50;86.62;100261.06;7396872;19;20015;-68
2023/09/23 03:43:27;;;;;;;1.42;0.80;;;;;;;12.52;86.37;100268.88;7396726;19;20015;-68
2023/09/23 03:45:56;;;;;;;3.03;1.10;;;;;;;12.52;86.40;100272.38;7398100;19;20023;-69
2023/09/23 03:48:25;;;;;;;4.53;1.45;;;;;;;12.53;86.38;100271.44;7397235;19;20413;-69
2023/09/23 03:50:57;;;;;;;3.95;1.20;;;;;;;12.53;86.28;100260.91;7397598;19;20078;-69
2023/09/23 03:53:26;;;;;;;3.83;1.85;;;;;;;12.54;85.93;100261.81;7396943;19;20094;-69
2023/09/23 03:55:55;;;;;;;2.20;1.30;;;;;;;12.54;85.86;100267.91;7397428;19;20085;-68
2023/09/23 03:58:24;;;;;;;2.00;1.10;;;;;;;12.56;85.77;100273.09;7394717;19;20014;-69
2023/09/23 04:00:54;;;;;;;2.05;1.25;;;;;;;12.56;85.76;100275.75;7395998;19;20379;-69
2023/09/23 04:03:22;;;;;;;2.28;1.20;;;;;;;12.55;85.59;100280.16;7395230;19;20015;-68
2023/09/23 04:06:00;;;;;;;2.67;1.20;;;;;;;12.55;85.32;100268.78;7396537;19;20572;-68
2023/09/23 04:08:29;;;;;;;4.75;1.13;;;;;;;12.53;85.28;100276.72;7397182;19;20014;-68
2023/09/23 04:10:58;;;;;;;1.83;1.27;;;;;;;12.53;85.05;100281.97;7396694;19;20010;-68
2023/09/23 04:13:27;;;;;;;1.92;1.05;;;;;;;12.53;85.01;100291.66;7395232;19;20477;-69
2023/09/23 04:16:00;;;;;;;1.42;0.63;;;;;;;12.54;85.00;100298.63;7396303;19;20526;-68
2023/09/23 04:18:29;;;;;;;2.45;1.30;;;;;;;12.53;84.93;100297.75;7397062;19;20014;-68
2023/09/23 04:21:08;;;;;;;2.03;1.17;;;;;;;12.53;84.83;100307.44;7396370;19;20407;-68
2023/09/23 04:23:38;;;;;;;4.18;1.55;;;;;;;12.52;84.68;100316.25;7394338;19;20007;-67
2023/09/23 04:26:08;;;;;;;3.20;1.63;;;;;;;12.50;84.89;100307.56;7397147;19;20026;-67
2023/09/23 04:28:38;;;;;;;2.22;1.27;;;;;;;12.49;84.63;100321.63;7396225;19;20017;-67
2023/09/23 04:31:06;;;;;;;3.35;1.15;;;;;;;12.47;84.80;100311.16;7395747;19;20006;-68
2023/09/23 04:33:35;;;;;;;2.50;1.00;;;;;;;12.48;84.58;100318.13;7395175;19;20082;-68
2023/09/23 04:36:10;;;;;;;3.88;1.10;;;;;;;12.46;84.41;100329.63;7396122;19;20354;-68
2023/09/23 04:38:39;;;;;;;2.25;1.02;;;;;;;12.43;84.55;100322.69;7394444;19;20033;-68
2023/09/23 04:41:07;;;;;;;4.22;1.10;;;;;;;12.42;84.40;100320.97;7393596;19;20014;-68
2023/09/23 04:43:36;;;;;;;1.45;1.00;;;;;;;12.41;84.35;100328.94;7392821;19;20010;-68
2023/09/23 04:46:05;;;;;;;2.10;1.30;;;;;;;12.39;84.34;100334.25;7394629;19;20481;-68
2023/09/23 04:48:34;;;;;;;2.67;1.10;;;;;;;12.38;84.50;100335.16;7394852;19;20014;-68
2023/09/23 04:51:09;;;;;;;2.50;1.00;;;;;;;12.36;84.33;100332.59;7395373;19;20011;-69
2023/09/23 04:53:37;;;;;;;3.20;1.15;;;;;;;12.34;84.23;100338.81;7394791;19;20038;-69
2023/09/23 04:56:08;;;;;;;1.92;1.10;;;;;;;12.33;84.27;100348.50;7395350;19;20093;-68
2023/09/23 04:58:37;;;;;;;1.42;0.82;;;;;;;12.32;84.19;100351.16;7395639;19;20372;-69
2023/09/23 05:01:07;;;;;;;1.60;1.02;;;;;;;12.30;84.13;100353.84;7395460;19;20115;-68
2023/09/23 05:03:36;;;;;;;2.28;0.77;;;;;;;12.29;84.03;100361.81;7393060;19;20044;-69
2023/09/23 05:06:08;;;;;;;1.67;0.77;;;;;;;12.27;84.16;100353.09;7394586;19;20014;-68
2023/09/23 05:08:36;;;;;;;2.92;0.80;;;;;;;12.24;84.14;100371.63;7395514;19;20018;-68
2023/09/23 05:11:07;;;;;;;0.88;0.80;;;;;;;12.20;84.18;100371.72;7400787;19;20024;-68
2023/09/23 05:13:37;;;;;;;0.93;0.63;;;;;;;12.20;84.09;100378.75;7402381;19;20022;-68
2023/09/23 05:16:06;;;;;;;3.38;0.85;;;;;;;12.16;84.26;100375.38;7402975;19;20079;-68
2023/09/23 05:18:34;;;;;;;2.50;0.93;;;;;;;12.16;84.06;100379.78;7402586;19;20032;-68
2023/09/23 05:21:04;;;;;;;1.10;0.80;;;;;;;12.15;84.14;100391.22;7401280;19;20078;-68
2023/09/23 05:23:36;;;;;;;1.90;0.90;;;;;;;12.12;84.09;100381.66;7400512;19;20344;-68
2023/09/23 05:26:04;;;;;;;1.77;0.88;;;;;;;12.10;84.36;100399.25;7402695;19;20031;-68
2023/09/23 05:28:33;;;;;;;2.25;0.98;;;;;;;12.10;84.27;100398.41;7399193;19;20014;-68
2023/09/23 05:31:03;;;;;;;2.25;0.93;;;;;;;12.09;84.23;100402.78;7399112;19;20081;-68
2023/09/23 05:33:32;;;;;;;1.45;0.75;;;;;;;12.09;84.20;100417.72;7400741;19;20034;-69
2023/09/23 05:36:00;;;;;;;2.67;1.00;;;;;;;12.08;84.01;100427.38;7401551;19;20363;-69
2023/09/23 05:38:29;;;;;;;2.40;0.77;;;;;;;12.06;84.17;100430.03;7401653;19;20070;-69
2023/09/23 05:41:01;;;;;;;3.10;0.80;;;;;;;12.06;84.17;100429.19;7400791;19;20077;-69
2023/09/23 05:43:30;;;;;;;1.02;0.73;;;;;;;12.05;83.89;100438.81;7399487;19;20478;-69
2023/09/23 05:45:58;;;;;;;2.53;0.90;;;;;;;12.05;84.10;100440.59;7401356;19;20014;-69
2023/09/23 05:48:27;;;;;;;3.22;1.05;;;;;;;12.03;84.03;100432.78;7400970;19;20019;-69
2023/09/23 05:51:05;;;;;;;1.77;0.77;;;;;;;12.03;84.06;100435.41;7398867;19;20017;-68
2023/09/23 05:53:33;;;;;;;1.25;0.65;;;;;;;12.04;83.99;100438.88;7400165;19;20025;-68
2023/09/23 05:56:05;;;;;;;3.85;0.82;;;;;;;12.03;84.00;100440.66;7398657;19;20082;-69
2023/09/23 05:58:33;;;;;;;0.95;0.77;;;;;;;12.04;84.13;100454.66;7400289;19;20007;-69
2023/09/23 06:01:02;;;;;;;3.30;0.70;;;;;;;12.03;83.84;100450.31;7400022;19;20014;-68
2023/09/23 06:03:30;;;;;;;2.20;1.13;;;;;;;12.04;83.89;100447.66;7398870;19;20608;-68
2023/09/23 06:05:58;;;;;;;2.45;0.90;;;;;;;12.05;83.94;100445.88;7399729;19;20020;-68
2023/09/23 06:08:27;;;;;;;1.35;1.13;;;;;;;12.06;83.88;100455.47;7400274;19;20022;-68
2023/09/23 06:11:04;;;;;;;2.67;0.90;;;;;;;12.07;83.78;100462.47;7399948;19;20502;-68
2023/09/23 06:13:34;;;;;;;1.92;0.90;;;;;;;12.08;83.74;100463.31;7399142;19;20023;-68
2023/09/23 06:16:04;;;;;;;3.08;1.27;;;;;;;12.10;83.67;100480.75;7400707;19;20011;-68
2023/09/23 06:18:33;;;;;;;2.47;0.85;;;;;;;12.11;83.55;100474.59;7401392;19;20018;-69
2023/09/23 06:21:03;;;;;;;1.58;0.93;;;;;;;12.13;83.46;100474.53;7398818;19;20007;-67
2023/09/23 06:23:32;;;;;;;1.70;1.00;;;;;;;12.16;83.31;100480.56;7397385;19;20082;-68
2023/09/23 06:26:10;;;;;;;1.63;0.68;;;;;;;12.19;82.98;100488.34;7400412;19;20034;-68
2023/09/23 06:28:41;;;;;;;0.95;0.73;;;;;;;12.23;83.15;100486.47;7400893;19;20011;-68
2023/09/23 06:31:10;;;;;;;1.45;0.77;;;;;;;12.27;82.99;100481.97;7397717;19;20006;-69
2023/09/23 06:33:38;;;;;;;0.85;0.75;;;;;;;12.32;82.70;100493.22;7398671;19;20015;-69
2023/09/23 06:36:08;;;;;;;1.35;0.70;;;;;;;12.35;82.54;100488.72;7397056;19;20383;-68
2023/09/23 06:38:37;;;;;;;1.35;0.68;;;;;;;12.41;82.15;100497.31;7397103;19;20013;-68
2023/09/23 06:41:06;;;;;;;1.65;0.75;;;;;;;12.45;82.17;100499.78;7399142;19;20027;-67
2023/09/23 06:43:35;;;;;;;2.75;1.00;;;;;;;12.51;82.02;100504.84;7396732;19;20010;-68
2023/09/23 06:46:06;;;;;;;1.35;0.70;;;;;;;12.56;81.65;100507.31;7399290;19;20035;-68
2023/09/23 06:48:35;;;;;;;1.85;0.93;;;;;;;12.61;81.57;100509.78;7399851;19;20075;-68
2023/09/23 06:51:12;;;;;;;2.45;1.33;;;;;;;12.66;81.40;100513.13;7399332;19;20546;-70
2023/09/23 06:53:40;;;;;;;3.65;1.25;;;;;;;12.70;81.21;100512.97;7398229;19;20038;-69
2023/09/23 06:56:09;;;;;;;1.15;0.80;;;;;;;12.75;81.00;100518.09;7399554;19;20521;-69
2023/09/23 06:58:37;;;;;;;0.82;0.70;;;;;;;12.81;80.49;100535.44;7398963;19;20086;-68
2023/09/23 07:01:08;;;;;;;1.90;0.80;;;;;;;12.86;80.29;100531.75;7398479;19;20007;-69
2023/09/23 07:03:37;;;;;;;1.85;0.82;;;;;;;12.90;80.10;100526.38;7397635;19;20526;-69
2023/09/23 07:06:06;;;;;;;1.52;0.68;;;;;;;12.94;79.87;100536.75;7398978;19;20023;-68
2023/09/23 07:08:34;;;;;;;1.50;1.02;;;;;;;13.04;79.50;100551.31;7398848;19;20010;-69
2023/09/23 07:11:03;;;;;;;3.08;0.90;;;;;;;13.10;79.57;100554.63;7398671;19;20014;-69
2023/09/23 07:13:31;;;;;;;3.25;0.80;;;;;;;13.15;79.14;100564.06;7397471;19;20027;-69
2023/09/23 07:16:00;;;;;;;1.65;0.98;;;;;;;13.19;78.91;100570.97;7399434;19;20025;-69
2023/09/23 07:18:31;;;;;;;0.98;0.60;;;;;;;13.24;78.59;100570.78;7397960;19;20368;-69
2023/09/23 07:21:00;;;;;;;2.70;1.42;;;;;;;13.27;78.35;100565.44;7398313;19;20431;-69
2023/09/23 07:23:28;;;;;;;1.33;0.90;;;;;;;13.31;78.42;100567.03;7396037;19;20070;-68
2023/09/23 07:25:56;;;;;;;2.78;1.00;;;;;;;13.36;78.21;100564.25;7398370;19;20073;-69
2023/09/23 07:28:25;;;;;;;2.67;1.55;;;;;;;13.39;77.75;100565.94;7397847;19;20082;-69
2023/09/23 07:30:53;;;;;;;1.98;0.90;;;;;;;13.44;77.64;100567.47;7398195;19;20018;-69
2023/09/23 07:33:22;;;;;;;1.95;1.00;;;;;;;13.48;76.91;100562.97;7396662;19;20034;-69
2023/09/23 07:35:53;;;;;;;1.23;0.82;;;;;;;13.54;76.91;100568.00;7396012;19;20011;-69
2023/09/23 07:38:22;;;;;;;3.10;1.30;;;;;;;13.60;76.80;100573.06;7397524;19;20019;-69
2023/09/23 07:40:51;;;;;;;1.10;0.80;;;;;;;13.64;76.77;100565.91;7397210;19;20011;-69
2023/09/23 07:43:19;;;;;;;1.48;0.75;;;;;;;13.70;76.32;100570.94;7395404;19;20014;-69
2023/09/23 07:45:48;;;;;;;0.80;0.60;;;;;;;13.77;75.90;100577.69;7395146;19;20039;-68
2023/09/23 07:48:16;;;;;;;2.45;0.90;;;;;;;13.82;74.73;100591.53;7397059;19;20021;-68
2023/09/23 07:50:45;;;;;;;1.55;1.20;;;;;;;13.89;75.47;100586.03;7395497;19;20027;-68
2023/09/23 07:53:17;;;;;;;2.72;1.10;;;;;;;13.93;74.75;100592.94;7396394;19;20038;-68
2023/09/23 07:55:46;;;;;;;1.58;0.80;;;;;;;13.98;74.83;100591.00;7397500;19;20010;-68
2023/09/23 07:58:15;;;;;;;2.15;0.90;;;;;;;14.03;73.79;100594.31;7395157;19;20014;-69
2023/09/23 08:00:43;;;;;;;1.98;0.60;;;;;;;14.06;72.97;100599.44;7394927;19;20015;-69
2023/09/23 08:03:12;;;;;;;1.02;0.70;;;;;;;14.10;73.14;100603.72;7395154;19;20445;-69
2023/09/23 08:05:40;;;;;;;1.40;0.65;;;;;;;14.13;72.78;100598.31;7396207;19;20018;-68
2023/09/23 08:08:08;;;;;;;1.98;0.93;;;;;;;14.17;72.78;100605.16;7396579;19;20082;-68
2023/09/23 08:10:40;;;;;;;1.63;0.80;;;;;;;14.23;72.75;100613.75;7396182;19;20474;-69
2023/09/23 08:13:08;;;;;;;1.33;0.60;;;;;;;14.27;71.90;100605.69;7396257;19;20014;-68
2023/09/23 08:15:37;;;;;;;1.65;0.85;;;;;;;14.30;71.24;100634.56;7396542;19;20110;-67
2023/09/23 08:18:06;;;;;;;0.80;0.50;;;;;;;14.34;70.18;100640.59;7396509;19;20371;-69
2023/09/23 08:20:35;;;;;;;1.40;0.57;;;;;;;14.43;69.99;100636.72;7396087;19;20011;-68
2023/09/23 08:23:04;;;;;;;0.85;0.50;;;;;;;14.50;70.02;100644.34;7394722;19;20018;-67
2023/09/23 08:25:32;;;;;;;1.42;0.70;;;;;;;14.59;70.51;100639.63;7396334;19;20020;-68
2023/09/23 08:28:03;;;;;;;1.65;0.70;;;;;;;14.68;69.64;100644.56;7396103;19;20015;-67
2023/09/23 08:30:32;;;;;;;1.63;0.70;;;;;;;14.75;69.23;100630.19;7396537;19;20019;-69
2023/09/23 08:33:00;;;;;;;0.63;0.47;;;;;;;14.81;68.92;100648.44;7395330;19;20429;-68
2023/09/23 08:35:29;;;;;;;1.55;0.65;;;;;;;14.85;68.31;100648.28;7396549;19;20078;-69
2023/09/23 08:37:57;;;;;;;1.73;0.70;;;;;;;14.82;68.10;100652.81;7393541;19;20347;-68
2023/09/23 08:40:26;;;;;;;1.17;0.80;;;;;;;14.82;68.29;100659.84;7395398;19;20019;-68
2023/09/23 08:42:55;;;;;;;0.98;0.70;;;;;;;14.82;68.25;100676.56;7394219;19;20082;-68
2023/09/23 08:45:30;;;;;;;0.93;0.60;;;;;;;14.84;67.62;100679.16;7392253;19;20015;-68
2023/09/23 08:47:59;;;;;;;1.17;0.65;;;;;;;14.89;67.97;100679.81;7393282;19;20027;-68
2023/09/23 08:50:28;;;;;;;1.75;0.90;;;;;;;14.95;67.70;100673.41;7395168;19;20070;-68
2023/09/23 08:52:57;;;;;;;2.22;0.63;;;;;;;15.05;67.96;100682.69;7393284;19;20031;-69
2023/09/23 08:55:28;;;;;;;1.50;1.00;;;;;;;15.14;67.50;100690.22;7394274;19;20006;-68
2023/09/23 08:58:01;;;;;;;2.20;0.80;;;;;;;15.24;67.34;100692.47;7395285;19;20071;-69
2023/09/23 09:00:33;;;;;;;1.95;0.70;;;;;;;15.30;66.73;100700.16;7395615;19;20010;-68
2023/09/23 09:03:00;;;;;;;0.93;0.52;;;;;;;15.38;66.47;100706.00;7393102;19;20038;-69
2023/09/23 09:05:38;;;;;;;1.20;0.77;;;;;;;15.46;65.58;100706.50;7394924;19;20074;-68
2023/09/23 09:08:08;;;;;;;1.23;0.82;;;;;;;15.51;66.11;100702.81;7392995;19;20023;-69
2023/09/23 09:10:36;;;;;;;0.90;0.60;;;;;;;15.58;66.08;100701.63;7394160;19;20014;-69
2023/09/23 09:13:05;;;;;;;1.95;0.70;;;;;;;15.68;66.04;100716.16;7393728;19;20482;-68
2023/09/23 09:15:37;;;;;;;1.83;1.00;;;;;;;15.77;65.18;100713.13;7394061;19;20368;-68
2023/09/23 09:18:07;;;;;;;1.10;0.65;;;;;;;15.88;65.29;100714.47;7394712;19;20006;-69
2023/09/23 09:20:36;;;;;;;0.70;0.70;;;;;;;15.95;64.71;100726.50;7393919;19;20514;-69
2023/09/23 09:23:05;;;;;;;1.67;0.80;;;;;;;16.01;63.65;100733.28;7392034;19;20015;-69
2023/09/23 09:25:34;;;;;;;1.08;0.43;;;;;;;16.05;64.26;100732.22;7394082;19;20362;-68
2023/09/23 09:28:02;;;;;;;1.75;0.50;;;;;;;16.08;64.11;100730.28;7393957;19;20020;-68
2023/09/23 09:30:31;;;;;;;2.13;0.60;;;;;;;16.12;64.02;100733.66;7394144;19;20006;-68
2023/09/23 09:33:05;;;;;;;2.58;0.93;;;;;;;16.16;64.04;100731.75;7393692;19;20014;-69
2023/09/23 09:35:35;;;;;;;1.13;0.80;;;;;;;16.18;63.88;100737.84;7394925;19;20007;-68
2023/09/23 09:38:08;;;;;;;0.73;0.50;;;;;;;16.18;63.37;100735.19;7394978;19;20023;-69
2023/09/23 09:40:37;;;;;;;1.73;0.60;;;;;;;16.16;63.85;100747.63;7391975;19;20017;-69
2023/09/23 09:43:07;;;;;;;1.88;0.80;;;;;;;16.12;63.59;100741.59;7391901;19;20035;-68
2023/09/23 09:45:40;;;;;;;1.20;0.60;;;;;;;16.07;63.39;100748.91;7392336;19;20141;-68
2023/09/23 09:48:21;;;;;;;1.65;0.70;;;;;;;16.00;62.86;100755.38;7393120;19;20493;-67
2023/09/23 09:50:51;;;;;;;1.10;0.73;;;;;;;15.93;63.43;100744.22;7393965;19;20010;-68
2023/09/23 09:53:28;;;;;;;1.42;0.70;;;;;;;15.85;63.57;100760.44;7392486;19;20007;-68
2023/09/23 09:55:57;;;;;;;0.68;0.60;;;;;;;15.76;62.75;100761.66;7396710;19;20097;-68
2023/09/23 09:58:26;;;;;;;0.88;0.70;;;;;;;15.70;63.74;100761.06;7401232;19;20074;-68
2023/09/23 10:00:55;;;;;;;1.63;0.70;;;;;;;15.64;64.00;100765.69;7397850;19;20006;-67
2023/09/23 10:03:28;;;;;;;2.95;0.93;;;;;;;15.61;63.63;100763.16;7398827;19;20415;-68
2023/09/23 10:06:02;;;;;;;1.20;0.98;;;;;;;15.57;63.93;100768.63;7400986;19;20006;-68
2023/09/23 10:08:38;;;;;;;;;;;;;;;15.53;63.55;100772.34;7400975;19;20498;-68
2023/09/23 10:11:10;;;;;;;1.20;0.90;;;;;;;15.50;64.46;100764.56;7400958;19;19914;-68
2023/09/23 10:13:39;;;;;;;1.05;0.90;;;;;;;15.50;64.51;100768.03;7397779;19;20031;-69
2023/09/23 10:16:11;;;;;;;2.58;1.00;;;;;;;15.56;62.92;100753.72;7400020;19;20498;-68
2023/09/23 10:18:43;;;;;;;2.03;0.85;;;;;;;15.67;63.22;100761.19;7400018;19;20026;-68
2023/09/23 10:21:29;;;;;;;1.70;1.23;;;;;;;15.83;62.35;100751.69;7400464;19;20041;-67
2023/09/23 10:24:03;;;;;;;2.50;0.88;;;;;;;15.95;62.48;100745.03;7397627;19;20014;-68
2023/09/23 10:26:31;;;;;;;1.33;0.98;;;;;;;16.07;62.03;100754.19;7400082;19;20051;-68
2023/09/23 10:29:00;;;;;;;1.10;0.80;;;;;;;16.17;61.97;100754.63;7399924;19;20013;-68
2023/09/23 10:31:29;;;;;;;1.10;0.70;;;;;;;16.25;61.65;100755.13;7399623;19;20011;-68
2023/09/23 10:34:06;;;;;;;1.38;1.00;;;;;;;16.29;59.77;100751.44;7396418;19;20066;-68
2023/09/23 10:36:36;;;;;;;0.98;0.70;;;;;;;16.31;59.77;100752.22;7399134;19;20020;-69
2023/09/23 10:39:09;;;;;;;1.65;0.60;;;;;;;16.33;60.13;100753.00;7399246;19;20482;-68
2023/09/23 10:41:40;;;;;;;1.33;0.80;;;;;;;16.36;59.44;100760.81;7399451;19;20017;-69
2023/09/23 10:44:08;;;;;;;1.02;0.60;;;;;;;16.38;59.07;100764.25;7397187;19;20038;-68
2023/09/23 10:46:38;;;;;;;1.38;0.85;;;;;;;16.41;58.24;100755.31;7400007;19;20018;-68
2023/09/23 10:49:09;;;;;;;6.13;0.88;;;;;;;16.43;56.11;100762.25;7398733;19;20013;-69
2023/09/23 10:51:38;;;;;;;2.15;0.80;;;;;;;16.49;57.47;100758.47;7399804;19;20069;-69
2023/09/23 10:54:06;;;;;;;0.90;0.75;;;;;;;16.55;57.47;100763.47;7397518;19;20019;-69
2023/09/23 10:56:36;;;;;;;1.80;0.93;;;;;;;16.60;57.17;100758.84;7396415;19;20003;-69
2023/09/23 10:59:05;;;;;;;1.02;0.80;;;;;;;16.67;57.11;100764.69;7398756;19;20014;-69
2023/09/23 11:01:34;;;;;;;4.72;0.65;;;;;;;16.72;57.25;100756.50;7399464;19;20011;-69
2023/09/23 11:04:02;;;;;;;1.17;0.90;;;;;;;16.74;56.75;100765.25;7396907;19;20027;-69
2023/09/23 11:06:33;;;;;;;1.48;0.63;;;;;;;16.76;56.64;100755.47;7398464;19;20015;-69
2023/09/23 11:09:03;;;;;;;0.60;0.52;;;;;;;16.76;56.69;100768.69;7397681;19;20018;-69
2023/09/23 11:11:36;;;;;;;0.93;0.50;;;;;;;16.77;56.79;100759.81;7395543;19;20050;-69
2023/09/23 11:14:12;;;;;;;1.00;0.40;;;;;;;16.81;56.70;100768.47;7396782;19;20074;-69
2023/09/23 11:16:44;;;;;;;1.92;0.70;;;;;;;16.85;56.16;100762.97;7396437;19;20023;-68
2023/09/23 11:19:13;;;;;;;1.40;0.80;;;;;;;16.92;56.35;100768.84;7398172;19;20606;-68
2023/09/23 11:21:48;;;;;;;1.10;0.80;;;;;;;16.96;54.85;100774.84;7398383;19;20014;-68
2023/09/23 11:24:16;;;;;;;0.70;0.55;;;;;;;17.04;56.35;100773.56;7396119;19;20478;-68
2023/09/23 11:26:45;;;;;;;1.80;0.52;;;;;;;17.14;56.16;100784.59;7398079;19;20477;-68
2023/09/23 11:29:15;;;;;;;1.70;0.63;;;;;;;17.22;55.12;100781.56;7398174;19;20026;-68
2023/09/23 11:31:43;;;;;;;0.65;0.38;;;;;;;17.24;55.17;100774.41;7398110;19;20010;-69
2023/09/23 11:34:12;;;;;;;1.88;0.75;;;;;;;17.24;54.86;100787.66;7396543;19;20035;-68
2023/09/23 11:36:40;;;;;;;1.10;0.63;;;;;;;17.22;54.98;100787.69;7397689;19;20477;-69